TAF KTRK
KTRK 081720Z 0818/0918 21006KT P6SM SCT030 BKN180 FM082000 23010G18KT P6SM BKN050 OVC100 FM090400 20007KT 4SM -RASN BKN030 OVC050 FM090800 VRB04KT 1SM -SN BKN005 OVC010 FM091600 00000KT 1/2SM SN OVC002=
METAR KTRK
WC KTRK
WS KTRK
WV KTRK